createdAt,value
2022-10-11T00:02:00.331Z,3.03
2022-10-11T00:04:28.049Z,2.60
2022-10-11T00:06:57.012Z,2.92
2022-10-11T00:09:24.763Z,2.95
2022-10-11T00:11:52.381Z,2.08
2022-10-11T00:14:19.984Z,2.45
2022-10-11T00:16:47.610Z,2.78
2022-10-11T00:19:15.828Z,2.88
2022-10-11T00:21:43.449Z,2.70
2022-10-11T00:24:13.550Z,2.95
2022-10-11T00:26:46.388Z,2.75
2022-10-11T00:29:15.327Z,2.72
2022-10-11T00:31:42.962Z,3.20
2022-10-11T00:34:11.939Z,2.75
2022-10-11T00:36:39.623Z,2.80
2022-10-11T00:39:07.295Z,2.83
2022-10-11T00:41:36.605Z,2.72
2022-10-11T00:44:13.453Z,2.85
2022-10-11T00:46:43.383Z,3.20
2022-10-11T00:49:18.682Z,2.97
2022-10-11T00:51:51.538Z,2.40
2022-10-11T00:54:23.399Z,2.75
2022-10-11T00:56:57.035Z,2.72
2022-10-11T00:59:28.648Z,3.20
2022-10-11T01:01:56.948Z,2.50
2022-10-11T01:04:24.661Z,3.55
2022-10-11T01:06:52.781Z,2.70
2022-10-11T01:09:22.171Z,2.95
2022-10-11T01:11:54.630Z,2.92
2022-10-11T01:14:58.302Z,2.90
2022-10-11T01:17:36.721Z,2.58
2022-10-11T01:20:35.313Z,3.95
2022-10-11T01:23:33.622Z,3.15
2022-10-11T01:26:25.513Z,2.90
2022-10-11T01:29:08.833Z,3.25
2022-10-11T01:31:41.318Z,2.97
2022-10-11T01:34:15.074Z,2.70
2022-10-11T01:36:49.679Z,3.70
2022-10-11T01:39:23.286Z,2.72
2022-10-11T01:41:54.811Z,2.85
2022-10-11T01:44:25.142Z,2.17
2022-10-11T01:46:54.350Z,2.83
2022-10-11T01:49:22.237Z,2.88
2022-10-11T01:51:53.870Z,2.78
2022-10-11T01:54:56.716Z,3.75
2022-10-11T01:57:46.219Z,2.10
2022-10-11T02:00:16.874Z,2.50
2022-10-11T02:03:06.664Z,2.80
2022-10-11T02:05:40.123Z,2.70
2022-10-11T02:08:16.349Z,3.05
2022-10-11T02:10:49.723Z,2.85
2022-10-11T02:13:21.711Z,2.80
2022-10-11T02:15:51.141Z,2.60
2022-10-11T02:18:25.855Z,3.63
2022-10-11T02:20:54.403Z,2.85
2022-10-11T02:23:26.657Z,2.55
2022-10-11T02:25:56.035Z,3.50
2022-10-11T02:28:27.672Z,2.28
2022-10-11T02:30:57.675Z,2.40
2022-10-11T02:33:32.490Z,2.88
2022-10-11T02:36:07.425Z,3.60
2022-10-11T02:38:40.901Z,3.20
2022-10-11T02:41:17.819Z,2.83
2022-10-11T02:43:52.601Z,2.88
2022-10-11T02:46:20.608Z,3.65
2022-10-11T02:48:50.648Z,3.55
2022-10-11T02:51:19.075Z,2.70
2022-10-11T02:53:46.782Z,3.90
2022-10-11T02:56:14.433Z,4.43
2022-10-11T02:58:42.082Z,3.20
2022-10-11T03:01:09.862Z,3.38
2022-10-11T03:03:37.577Z,3.00
2022-10-11T03:06:07.379Z,3.38
2022-10-11T03:08:35.586Z,3.03
2022-10-11T03:11:03.276Z,3.17
2022-10-11T03:13:31.077Z,3.30
2022-10-11T03:16:03.268Z,3.40
2022-10-11T03:18:31.464Z,2.80
2022-10-11T03:20:59.112Z,3.17
2022-10-11T03:23:28.218Z,3.55
2022-10-11T03:25:55.871Z,4.97
2022-10-11T03:28:23.602Z,3.80
2022-10-11T03:30:52.410Z,3.90
2022-10-11T03:33:20.463Z,4.13
2022-10-11T03:35:49.387Z,3.75
2022-10-11T03:38:20.207Z,3.50
2022-10-11T03:40:49.471Z,3.58
2022-10-11T03:43:17.226Z,3.80
2022-10-11T03:45:44.888Z,3.30
2022-10-11T03:48:13.020Z,3.85
2022-10-11T03:50:41.025Z,3.60
2022-10-11T03:53:09.088Z,3.97
2022-10-11T03:55:39.971Z,3.63
2022-10-11T03:58:09.541Z,4.63
2022-10-11T04:00:37.671Z,3.92
2022-10-11T04:03:05.301Z,4.88
2022-10-11T04:05:33.121Z,5.22
2022-10-11T04:08:00.755Z,3.85
2022-10-11T04:10:28.608Z,3.45
2022-10-11T04:12:56.277Z,3.30
2022-10-11T04:15:25.277Z,3.28
2022-10-11T04:17:52.906Z,3.25
2022-10-11T04:20:20.614Z,3.90
2022-10-11T04:22:48.437Z,5.28
2022-10-11T04:25:16.326Z,4.30
2022-10-11T04:27:43.948Z,4.25
2022-10-11T04:30:13.104Z,3.03
2022-10-11T04:32:42.102Z,3.60
2022-10-11T04:35:10.465Z,4.32
2022-10-11T04:37:38.246Z,3.70
2022-10-11T04:40:07.135Z,4.60
2022-10-11T04:42:34.890Z,4.40
2022-10-11T04:45:02.555Z,3.92
2022-10-11T04:47:30.232Z,4.15
2022-10-11T04:49:59.148Z,4.18
2022-10-11T04:52:26.932Z,4.03
2022-10-11T04:54:54.614Z,5.13
2022-10-11T04:57:22.245Z,4.72
2022-10-11T04:59:50.391Z,3.70
2022-10-11T05:02:18.336Z,5.03
2022-10-11T05:04:46.115Z,4.32
2022-10-11T05:07:15.199Z,4.25
2022-10-11T05:09:42.787Z,4.65
2022-10-11T05:12:11.056Z,4.88
2022-10-11T05:14:38.700Z,5.32
2022-10-11T05:17:06.342Z,4.55
2022-10-11T05:19:33.923Z,4.68
2022-10-11T05:22:01.531Z,4.88
2022-10-11T05:24:30.527Z,4.93
2022-10-11T05:27:03.029Z,6.25
2022-10-11T05:29:31.077Z,4.70
2022-10-11T05:31:58.805Z,6.05
2022-10-11T05:34:26.602Z,5.40
2022-10-11T05:36:54.290Z,5.45
2022-10-11T05:39:21.909Z,5.45
2022-10-11T05:41:51.768Z,4.63
2022-10-11T05:44:19.423Z,6.25
2022-10-11T05:46:47.142Z,5.60
2022-10-11T05:49:14.788Z,5.03
2022-10-11T05:51:42.445Z,6.05
2022-10-11T05:54:10.071Z,5.63
2022-10-11T05:56:37.714Z,5.18
2022-10-11T05:59:07.312Z,5.03
2022-10-11T06:01:35.010Z,5.30
2022-10-11T06:04:02.657Z,5.30
2022-10-11T06:06:30.291Z,5.80
2022-10-11T06:08:57.998Z,5.47
2022-10-11T06:11:29.686Z,5.47
2022-10-11T06:14:00.665Z,5.40
2022-10-11T06:16:31.086Z,6.60
2022-10-11T06:19:00.953Z,5.43
2022-10-11T06:21:29.079Z,4.90
2022-10-11T06:24:01.346Z,5.47
2022-10-11T06:26:29.506Z,4.85
2022-10-11T06:28:57.380Z,4.03
2022-10-11T06:31:26.941Z,4.07
2022-10-11T06:33:55.948Z,4.28
2022-10-11T06:36:23.587Z,4.82
2022-10-11T06:38:52.931Z,4.88
2022-10-11T06:41:24.545Z,4.75
2022-10-11T06:43:52.272Z,3.95
2022-10-11T06:46:21.090Z,4.00
2022-10-11T06:48:49.749Z,4.03
2022-10-11T06:51:21.045Z,4.13
2022-10-11T06:53:51.037Z,5.47
2022-10-11T06:56:19.640Z,6.40
2022-10-11T06:58:47.567Z,4.67
2022-10-11T07:01:19.006Z,5.53
2022-10-11T07:03:47.323Z,5.23
2022-10-11T07:06:17.450Z,4.43
2022-10-11T07:08:46.518Z,4.67
2022-10-11T07:11:17.312Z,4.60
2022-10-11T07:13:50.269Z,4.60
2022-10-11T07:16:18.422Z,5.27
2022-10-11T07:18:46.115Z,4.90
2022-10-11T07:21:15.662Z,5.90
2022-10-11T07:23:44.158Z,5.30
2022-10-11T07:26:13.276Z,4.90
2022-10-11T07:28:41.379Z,5.33
2022-10-11T07:31:11.720Z,6.40
2022-10-11T07:33:39.596Z,5.53
2022-10-11T07:36:08.785Z,4.77
2022-10-11T07:38:40.119Z,5.97
2022-10-11T07:41:08.568Z,5.10
2022-10-11T07:43:38.475Z,6.00
2022-10-11T07:46:08.066Z,5.60
2022-10-11T07:48:37.235Z,6.50
2022-10-11T07:51:06.611Z,6.70
2022-10-11T07:53:39.787Z,5.87
2022-10-11T07:56:09.280Z,6.37
2022-10-11T07:58:38.426Z,5.30
2022-10-11T08:01:06.845Z,8.10
2022-10-11T08:03:34.570Z,7.00
2022-10-11T08:06:02.942Z,7.00
2022-10-11T08:08:31.084Z,6.57
2022-10-11T08:10:59.077Z,7.07
2022-10-11T08:13:27.196Z,6.93
2022-10-11T08:15:56.326Z,7.20
2022-10-11T08:18:24.855Z,7.40
2022-10-11T08:20:53.110Z,8.97
2022-10-11T08:23:20.893Z,6.33
2022-10-11T08:25:49.003Z,6.93
2022-10-11T08:28:17.785Z,8.03
2022-10-11T08:30:50.286Z,8.13
2022-10-11T08:33:20.921Z,8.17
2022-10-11T08:35:48.669Z,7.40
2022-10-11T08:38:16.441Z,6.30
2022-10-11T08:40:47.553Z,7.20
2022-10-11T08:43:29.040Z,7.17
2022-10-11T08:46:00.977Z,5.90
2022-10-11T08:48:35.762Z,6.20
2022-10-11T08:51:09.876Z,5.83
2022-10-11T08:53:47.289Z,7.13
2022-10-11T08:56:17.209Z,5.17
2022-10-11T08:58:50.384Z,5.93
2022-10-11T09:01:22.223Z,5.30
2022-10-11T09:03:51.805Z,5.70
2022-10-11T09:06:31.959Z,6.27
2022-10-11T09:09:16.115Z,6.07
2022-10-11T09:11:56.911Z,5.50
2022-10-11T09:14:47.254Z,6.70
2022-10-11T09:17:22.333Z,5.87
2022-10-11T09:20:13.420Z,5.10
2022-10-11T09:22:51.164Z,4.83
2022-10-11T09:25:32.440Z,5.83
2022-10-11T09:28:13.318Z,5.80
2022-10-11T09:30:48.146Z,4.97
2022-10-11T09:33:20.401Z,4.60
2022-10-11T09:35:51.508Z,5.50
2022-10-11T09:38:28.963Z,4.80
2022-10-11T09:41:06.936Z,4.27
2022-10-11T09:43:34.645Z,4.40
2022-10-11T09:46:02.710Z,3.80
2022-10-11T09:48:40.011Z,3.10
2022-10-11T09:51:15.694Z,2.93
2022-10-11T09:53:55.689Z,2.80
2022-10-11T09:56:26.238Z,2.80
2022-10-11T09:59:19.404Z,2.37
2022-10-11T10:01:47.158Z,2.10
2022-10-11T10:04:18.140Z,1.90
2022-10-11T10:06:47.189Z,2.60
2022-10-11T10:09:32.991Z,2.10
2022-10-11T10:12:11.935Z,2.30
2022-10-11T10:14:41.189Z,2.10
2022-10-11T10:17:16.999Z,2.97
2022-10-11T10:19:50.683Z,2.00
2022-10-11T10:22:22.873Z,2.10
2022-10-11T10:24:52.509Z,2.73
2022-10-11T10:27:23.546Z,2.60
2022-10-11T10:30:05.179Z,3.13
2022-10-11T10:32:43.744Z,2.67
2022-10-11T10:35:24.296Z,2.33
2022-10-11T10:38:00.663Z,3.20
2022-10-11T10:40:37.653Z,2.40
2022-10-11T10:43:05.346Z,2.83
2022-10-11T10:45:45.214Z,2.67
2022-10-11T10:48:23.856Z,2.43
2022-10-11T10:50:55.883Z,2.40
2022-10-11T10:53:33.997Z,2.73
2022-10-11T10:56:09.107Z,2.07
2022-10-11T10:58:56.770Z,1.90
2022-10-11T11:01:28.352Z,2.37
2022-10-11T11:04:05.947Z,2.30
2022-10-11T11:06:39.926Z,2.53
2022-10-11T11:09:26.088Z,2.03
2022-10-11T11:12:03.847Z,2.67
2022-10-11T11:14:41.272Z,3.10
2022-10-11T11:17:20.202Z,3.20
2022-10-11T11:20:01.817Z,2.30
2022-10-11T11:22:40.788Z,2.70
2022-10-11T11:25:25.300Z,3.27
2022-10-11T11:28:06.280Z,2.50
2022-10-11T11:30:41.996Z,2.47
2022-10-11T11:33:15.866Z,2.40
2022-10-11T11:35:47.478Z,2.53
2022-10-11T11:38:20.077Z,2.23
2022-10-11T11:40:53.689Z,2.13
2022-10-11T11:43:28.589Z,3.27
2022-10-11T11:46:00.541Z,2.40
2022-10-11T11:48:28.159Z,1.40
2022-10-11T11:51:02.735Z,2.23
2022-10-11T11:53:48.571Z,2.73
2022-10-11T11:56:27.831Z,2.00
2022-10-11T11:59:04.146Z,1.90
2022-10-11T12:01:39.616Z,1.97
2022-10-11T12:04:16.898Z,2.60
2022-10-11T12:07:04.331Z,2.10
2022-10-11T12:09:34.497Z,2.30
2022-10-11T12:12:06.768Z,2.00
2022-10-11T12:14:40.759Z,2.37
2022-10-11T12:17:15.634Z,2.37
2022-10-11T12:19:58.608Z,2.27
2022-10-11T12:22:53.537Z,2.63
2022-10-11T12:25:43.308Z,2.70
2022-10-11T12:28:48.496Z,2.37
2022-10-11T12:31:23.994Z,2.57
2022-10-11T12:34:03.730Z,2.33
2022-10-11T12:36:38.520Z,2.57
2022-10-11T12:39:43.237Z,2.40
2022-10-11T12:42:22.206Z,2.80
2022-10-11T12:45:23.442Z,2.33
2022-10-11T12:48:00.822Z,2.97
2022-10-11T12:50:40.219Z,2.57
2022-10-11T12:53:20.400Z,2.70
2022-10-11T12:56:00.828Z,3.93
2022-10-11T12:58:38.156Z,3.17
2022-10-11T13:01:18.502Z,2.43
2022-10-11T13:03:53.016Z,1.80
2022-10-11T13:06:24.808Z,2.73
2022-10-11T13:08:56.923Z,2.43
2022-10-11T13:11:29.417Z,1.97
2022-10-11T13:13:59.554Z,2.27
2022-10-11T13:16:29.353Z,2.10
2022-10-11T13:19:00.641Z,1.97
2022-10-11T13:21:32.153Z,2.50
2022-10-11T13:24:02.918Z,2.13
2022-10-11T13:26:32.515Z,2.17
2022-10-11T13:29:01.204Z,2.40
2022-10-11T13:31:29.021Z,2.07
2022-10-11T13:33:59.144Z,3.07
2022-10-11T13:36:28.060Z,2.40
2022-10-11T13:38:59.129Z,2.57
2022-10-11T13:41:28.167Z,2.00
2022-10-11T13:43:57.648Z,2.63
2022-10-11T13:46:28.094Z,2.03
2022-10-11T13:49:02.100Z,3.60
2022-10-11T13:51:33.615Z,2.40
2022-10-11T13:54:04.256Z,2.10
2022-10-11T13:56:36.494Z,1.80
2022-10-11T13:59:05.608Z,2.80
2022-10-11T14:01:40.219Z,2.50
2022-10-11T14:04:11.118Z,2.00
2022-10-11T14:06:44.999Z,2.27
2022-10-11T14:09:19.825Z,2.47
2022-10-11T14:11:48.444Z,3.63
2022-10-11T14:14:48.820Z,3.33
2022-10-11T14:17:18.539Z,2.40
2022-10-11T14:19:49.421Z,2.27
2022-10-11T14:22:18.580Z,3.30
2022-10-11T14:24:48.831Z,2.90
2022-10-11T14:27:21.067Z,2.40
2022-10-11T14:30:12.882Z,2.37
2022-10-11T14:32:37.374Z,2.57
2022-10-11T14:35:07.172Z,2.80
2022-10-11T14:37:40.021Z,2.20
2022-10-11T14:40:13.919Z,2.20
2022-10-11T14:42:41.561Z,2.20
2022-10-11T14:45:09.924Z,2.40
2022-10-11T14:47:42.636Z,2.47
2022-10-11T14:50:26.233Z,2.17
2022-10-11T14:52:54.355Z,2.30
2022-10-11T14:55:21.955Z,2.90
2022-10-11T14:57:49.680Z,7.80
2022-10-11T15:00:20.273Z,2.37
2022-10-11T15:02:47.966Z,2.33
2022-10-11T15:05:17.092Z,2.00
2022-10-11T15:07:44.860Z,2.07
2022-10-11T15:10:19.691Z,2.10
2022-10-11T15:12:47.378Z,1.53
2022-10-11T15:15:19.725Z,1.93
2022-10-11T15:17:49.527Z,1.90
2022-10-11T15:20:26.719Z,2.40
2022-10-11T15:22:54.661Z,2.30
2022-10-11T15:25:23.225Z,1.77
2022-10-11T15:27:51.316Z,1.90
2022-10-11T15:30:21.104Z,1.73
2022-10-11T15:32:48.955Z,2.07
2022-10-11T15:35:17.766Z,1.90
2022-10-11T15:37:47.079Z,1.70
2022-10-11T15:40:21.409Z,2.27
2022-10-11T15:42:49.766Z,2.07
2022-10-11T15:45:18.805Z,2.43
2022-10-11T15:47:47.531Z,1.97
2022-10-11T15:50:24.011Z,2.53
2022-10-11T15:52:53.339Z,1.87
2022-10-11T15:55:20.941Z,1.80
2022-10-11T15:57:48.696Z,1.80
2022-10-11T16:00:21.951Z,2.37
2022-10-11T16:02:52.119Z,1.60
2022-10-11T16:05:20.630Z,2.60
2022-10-11T16:07:48.466Z,2.03
2022-10-11T16:10:18.154Z,2.50
2022-10-11T16:12:45.822Z,2.00
2022-10-11T16:15:13.960Z,2.50
2022-10-11T16:17:41.609Z,3.70
2022-10-11T16:20:09.910Z,4.00
2022-10-11T16:22:37.680Z,3.67
2022-10-11T16:25:06.099Z,3.30
2022-10-11T16:27:35.109Z,2.43
2022-10-11T16:30:02.954Z,2.27
2022-10-11T16:32:32.666Z,2.37
2022-10-11T16:35:00.315Z,1.93
2022-10-11T16:37:28.038Z,2.27
2022-10-11T16:39:55.671Z,2.00
2022-10-11T16:42:23.231Z,2.33
2022-10-11T16:44:52.299Z,2.60
2022-10-11T16:47:20.501Z,2.30
2022-10-11T16:49:48.170Z,2.13
2022-10-11T16:52:16.386Z,2.00
2022-10-11T16:54:45.256Z,2.17
2022-10-11T16:57:14.170Z,2.60
2022-10-11T16:59:42.532Z,2.00
2022-10-11T17:02:17.151Z,2.50
2022-10-11T17:04:44.968Z,2.03
2022-10-11T17:07:13.527Z,2.60
2022-10-11T17:09:43.899Z,2.23
2022-10-11T17:12:13.286Z,1.93
2022-10-11T17:14:42.294Z,2.27
2022-10-11T17:17:11.397Z,1.90
2022-10-11T17:19:45.028Z,2.60
2022-10-11T17:22:15.848Z,2.23
2022-10-11T17:24:43.878Z,2.83
2022-10-11T17:27:11.550Z,2.50
2022-10-11T17:29:39.565Z,2.60
2022-10-11T17:32:07.488Z,2.70
2022-10-11T17:34:35.241Z,2.90
2022-10-11T17:37:04.447Z,2.33
2022-10-11T17:39:32.032Z,2.97
2022-10-11T17:42:04.878Z,3.10
2022-10-11T17:44:32.534Z,3.70
2022-10-11T17:47:00.308Z,3.13
2022-10-11T17:49:27.958Z,2.83
2022-10-11T17:51:56.540Z,4.10
2022-10-11T17:54:26.268Z,3.10
2022-10-11T17:56:54.516Z,4.27
2022-10-11T17:59:27.208Z,2.73
2022-10-11T18:01:55.506Z,4.10
2022-10-11T18:04:26.724Z,3.57
2022-10-11T18:06:54.945Z,3.50
2022-10-11T18:09:24.819Z,3.40
2022-10-11T18:11:52.607Z,3.60
2022-10-11T18:14:21.084Z,2.80
2022-10-11T18:16:48.740Z,3.30
2022-10-11T18:19:16.519Z,4.57
2022-10-11T18:21:44.441Z,4.73
2022-10-11T18:24:14.869Z,4.03
2022-10-11T18:26:44.358Z,4.30
2022-10-11T18:29:13.122Z,4.38
2022-10-11T18:31:41.381Z,4.25
2022-10-11T18:34:10.647Z,5.20
2022-10-11T18:36:38.867Z,4.97
2022-10-11T18:39:08.441Z,3.72
2022-10-11T18:41:36.229Z,3.60
2022-10-11T18:44:07.324Z,4.28
2022-10-11T18:46:35.791Z,4.55
2022-10-11T18:49:04.649Z,3.65
2022-10-11T18:51:34.667Z,3.85
2022-10-11T18:54:03.024Z,3.92
2022-10-11T18:56:32.255Z,4.13
2022-10-11T18:59:00.625Z,4.15
2022-10-11T19:01:32.604Z,4.05
2022-10-11T19:04:02.129Z,4.78
2022-10-11T19:06:32.565Z,4.10
2022-10-11T19:09:02.700Z,3.70
2022-10-11T19:11:30.616Z,4.22
2022-10-11T19:13:59.782Z,3.30
2022-10-11T19:16:30.464Z,4.13
2022-10-11T19:18:58.601Z,4.40
2022-10-11T19:21:27.397Z,4.00
2022-10-11T19:23:56.419Z,4.75
2022-10-11T19:26:26.668Z,4.25
2022-10-11T19:28:59.027Z,5.05
2022-10-11T19:31:27.584Z,5.00
2022-10-11T19:33:57.482Z,4.80
2022-10-11T19:36:25.878Z,5.97
2022-10-11T19:38:56.444Z,4.60
2022-10-11T19:41:25.799Z,4.45
2022-10-11T19:43:53.944Z,5.25
2022-10-11T19:46:44.368Z,5.45
2022-10-11T19:49:15.168Z,4.40
2022-10-11T19:51:42.781Z,5.95
2022-10-11T19:54:13.486Z,6.53
2022-10-11T19:56:42.365Z,6.25
2022-10-11T19:59:11.365Z,6.13
2022-10-11T20:01:40.796Z,6.80
2022-10-11T20:04:27.522Z,6.25
2022-10-11T20:07:00.285Z,6.05
2022-10-11T20:09:30.295Z,7.03
2022-10-11T20:11:58.637Z,7.00
2022-10-11T20:14:26.409Z,7.22
2022-10-11T20:16:54.072Z,5.38
2022-10-11T20:19:26.232Z,7.22
2022-10-11T20:21:57.038Z,6.13
2022-10-11T20:24:27.404Z,7.65
2022-10-11T20:26:55.331Z,7.20
2022-10-11T20:29:25.164Z,6.40
2022-10-11T20:31:53.274Z,7.57
2022-10-11T20:34:20.862Z,9.48
2022-10-11T20:36:49.402Z,7.10
2022-10-11T20:39:17.763Z,8.00
2022-10-11T20:41:46.729Z,7.50
2022-10-11T20:44:16.052Z,8.15
2022-10-11T20:46:43.788Z,7.65
2022-10-11T20:49:13.190Z,7.43
2022-10-11T20:51:42.561Z,7.43
2022-10-11T20:54:10.480Z,8.02
2022-10-11T20:56:38.824Z,7.00
2022-10-11T20:59:07.889Z,7.20
2022-10-11T21:01:37.999Z,7.97
2022-10-11T21:04:07.316Z,6.97
2022-10-11T21:06:35.383Z,9.00
2022-10-11T21:09:03.100Z,7.78
2022-10-11T21:11:33.254Z,8.40
2022-10-11T21:14:03.038Z,8.63
2022-10-11T21:16:33.003Z,9.57
2022-10-11T21:19:02.580Z,9.95
2022-10-11T21:21:30.901Z,10.85
2022-10-11T21:24:00.764Z,9.85
2022-10-11T21:26:29.114Z,9.35
2022-10-11T21:28:56.788Z,9.70
2022-10-11T21:31:24.481Z,10.70
2022-10-11T21:33:53.414Z,9.70
2022-10-11T21:36:24.622Z,8.88
2022-10-11T21:38:53.273Z,8.80
2022-10-11T21:41:22.973Z,9.57
2022-10-11T21:43:50.916Z,9.45
2022-10-11T21:46:20.746Z,8.50
2022-10-11T21:48:49.870Z,9.70
2022-10-11T21:51:22.853Z,8.70
2022-10-11T21:53:50.562Z,8.23
2022-10-11T21:56:18.588Z,10.25
2022-10-11T21:58:47.651Z,9.30
2022-10-11T22:01:16.045Z,8.82
2022-10-11T22:03:43.898Z,8.75
2022-10-11T22:06:11.946Z,10.38
2022-10-11T22:08:41.619Z,8.30
2022-10-11T22:11:10.744Z,8.55
2022-10-11T22:13:38.955Z,7.57
2022-10-11T22:16:09.285Z,9.00
2022-10-11T22:18:37.298Z,8.60
2022-10-11T22:21:09.567Z,10.20
2022-10-11T22:23:37.488Z,7.97
2022-10-11T22:26:08.878Z,8.18
2022-10-11T22:28:37.133Z,9.38
2022-10-11T22:31:05.948Z,8.65
2022-10-11T22:33:34.081Z,8.55
2022-10-11T22:36:04.417Z,8.75
2022-10-11T22:38:32.076Z,8.50
2022-10-11T22:40:59.961Z,9.20
2022-10-11T22:43:29.107Z,8.23
2022-10-11T22:45:56.746Z,8.38
2022-10-11T22:48:24.392Z,7.60
2022-10-11T22:50:52.268Z,8.93
2022-10-11T22:53:19.876Z,7.95
2022-10-11T22:55:48.003Z,8.27
2022-10-11T22:58:15.743Z,8.65
2022-10-11T23:00:44.795Z,7.65
2022-10-11T23:03:13.956Z,8.68
2022-10-11T23:05:41.755Z,7.90
2022-10-11T23:08:10.288Z,7.75
2022-10-11T23:10:39.188Z,9.05
2022-10-11T23:13:06.783Z,8.13
2022-10-11T23:15:34.348Z,10.05
2022-10-11T23:18:03.307Z,8.45
2022-10-11T23:20:30.881Z,8.85
2022-10-11T23:22:58.499Z,9.05
2022-10-11T23:25:26.100Z,8.50
2022-10-11T23:27:53.767Z,8.23
2022-10-11T23:30:21.377Z,8.75
2022-10-11T23:32:48.957Z,9.77
2022-10-11T23:35:17.923Z,8.75
2022-10-11T23:37:45.532Z,8.50
2022-10-11T23:40:13.215Z,8.32
2022-10-11T23:42:40.806Z,7.72
2022-10-11T23:45:09.495Z,9.13
2022-10-11T23:47:37.421Z,8.50
2022-10-11T23:50:06.129Z,8.05
2022-10-11T23:52:35.085Z,6.93
2022-10-11T23:55:02.715Z,8.00
2022-10-11T23:57:30.308Z,7.75
2022-10-11T23:59:57.986Z,7.50
